createdAt,value
2024-03-23T00:00:25.768Z,991.18
2024-03-23T00:01:25.792Z,991.09
2024-03-23T00:02:25.744Z,991.06
2024-03-23T00:03:25.744Z,991.09
2024-03-23T00:04:25.724Z,991.03
2024-03-23T00:05:25.728Z,991.01
2024-03-23T00:06:25.717Z,991.06
2024-03-23T00:07:25.717Z,991.04
2024-03-23T00:08:25.717Z,991.04
2024-03-23T00:09:34.552Z,990.99
2024-03-23T00:10:25.676Z,990.98
2024-03-23T00:11:25.687Z,990.96
2024-03-23T00:12:25.689Z,990.93
2024-03-23T00:13:25.695Z,990.91
2024-03-23T00:14:25.657Z,990.89
2024-03-23T00:15:25.679Z,990.98
2024-03-23T00:16:25.684Z,990.95
2024-03-23T00:17:25.638Z,990.92
2024-03-23T00:18:25.632Z,990.92
2024-03-23T00:19:25.648Z,990.87
2024-03-23T00:20:25.624Z,990.82
2024-03-23T00:21:25.638Z,990.82
2024-03-23T00:22:25.627Z,990.72
2024-03-23T00:23:25.632Z,990.67
2024-03-23T00:24:25.600Z,990.68
2024-03-23T00:25:25.660Z,990.63
2024-03-23T00:26:25.602Z,990.68
2024-03-23T00:27:25.630Z,990.73
2024-03-23T00:28:25.620Z,990.64
2024-03-23T00:29:25.565Z,990.71
2024-03-23T00:30:25.557Z,990.66
2024-03-23T00:31:25.566Z,990.67
2024-03-23T00:32:25.581Z,990.66
2024-03-23T00:33:25.599Z,990.71
2024-03-23T00:34:25.545Z,990.63
2024-03-23T00:35:25.562Z,990.61
2024-03-23T00:36:25.549Z,990.62
2024-03-23T00:37:25.522Z,990.53
2024-03-23T00:38:25.541Z,990.53
2024-03-23T00:39:25.522Z,990.47
2024-03-23T00:40:25.503Z,990.41
2024-03-23T00:41:25.511Z,990.40
2024-03-23T00:42:25.534Z,990.35
2024-03-23T00:43:25.468Z,990.38
2024-03-23T00:44:25.499Z,990.36
2024-03-23T00:45:25.468Z,990.38
2024-03-23T00:46:25.482Z,990.38
2024-03-23T00:47:25.484Z,990.40
2024-03-23T00:48:25.454Z,990.38
2024-03-23T00:49:25.463Z,990.37
2024-03-23T00:50:25.433Z,990.32
2024-03-23T00:51:25.445Z,990.39
2024-03-23T00:52:25.460Z,990.39
2024-03-23T00:53:25.419Z,990.36
2024-03-23T00:54:25.428Z,990.30
2024-03-23T00:55:25.409Z,990.20
2024-03-23T00:56:25.401Z,990.14
2024-03-23T00:57:25.389Z,990.15
2024-03-23T00:58:25.398Z,990.10
2024-03-23T00:59:25.393Z,990.10
2024-03-23T01:00:25.415Z,990.13
2024-03-23T01:01:25.428Z,990.11
2024-03-23T01:02:25.409Z,990.12
2024-03-23T01:03:25.389Z,990.06
2024-03-23T01:04:25.389Z,990.12
2024-03-23T01:05:25.374Z,990.17
2024-03-23T01:06:25.338Z,990.13
2024-03-23T01:07:25.314Z,990.13
2024-03-23T01:08:25.373Z,990.12
2024-03-23T01:09:25.360Z,990.12
2024-03-23T01:10:25.305Z,990.15
2024-03-23T01:11:25.319Z,990.21
2024-03-23T01:12:25.372Z,990.11
2024-03-23T01:13:25.302Z,990.10
2024-03-23T01:14:25.304Z,990.09
2024-03-23T01:15:25.300Z,990.01
2024-03-23T01:16:25.292Z,990.01
2024-03-23T01:17:25.271Z,989.95
2024-03-23T01:18:25.262Z,989.90
2024-03-23T01:19:25.302Z,989.94
2024-03-23T01:20:25.276Z,989.97
2024-03-23T01:21:25.253Z,989.89
2024-03-23T01:22:25.245Z,989.87
2024-03-23T01:23:25.237Z,989.86
2024-03-23T01:24:25.249Z,989.83
2024-03-23T01:25:25.224Z,989.73
2024-03-23T01:26:25.211Z,989.71
2024-03-23T01:27:25.266Z,989.64
2024-03-23T01:28:25.192Z,989.67
2024-03-23T01:29:25.194Z,989.67
2024-03-23T01:30:25.213Z,989.61
2024-03-23T01:31:25.192Z,989.61
2024-03-23T01:32:25.265Z,989.54
2024-03-23T01:33:25.206Z,989.55
2024-03-23T01:34:25.193Z,989.53
2024-03-23T01:35:25.778Z,989.46
2024-03-23T01:36:25.190Z,989.43
2024-03-23T01:37:25.142Z,989.50
2024-03-23T01:38:25.128Z,989.46
2024-03-23T01:39:25.192Z,989.40
2024-03-23T01:40:25.160Z,989.43
2024-03-23T01:41:25.141Z,989.44
2024-03-23T01:42:25.211Z,989.47
2024-03-23T01:43:25.129Z,989.44
2024-03-23T01:44:25.118Z,989.43
2024-03-23T01:45:25.116Z,989.44
2024-03-23T01:46:25.101Z,989.47
2024-03-23T01:47:25.111Z,989.47
2024-03-23T01:48:25.134Z,989.46
2024-03-23T01:49:25.062Z,989.42
2024-03-23T01:50:25.103Z,989.41
2024-03-23T01:51:25.110Z,989.38
2024-03-23T01:52:25.059Z,989.37
2024-03-23T01:53:25.035Z,989.38
2024-03-23T01:54:25.086Z,989.45
2024-03-23T01:55:25.052Z,989.54
2024-03-23T01:56:25.056Z,989.57
2024-03-23T01:57:25.063Z,989.53
2024-03-23T01:58:25.022Z,989.53
2024-03-23T01:59:25.016Z,989.53
2024-03-23T02:00:25.081Z,989.47
2024-03-23T02:01:25.028Z,989.36
2024-03-23T02:02:25.062Z,989.44
2024-03-23T02:03:25.043Z,989.51
2024-03-23T02:04:24.990Z,989.41
2024-03-23T02:05:25.029Z,989.39
2024-03-23T02:06:25.042Z,989.42
2024-03-23T02:07:24.991Z,989.33
2024-03-23T02:08:24.973Z,989.37
2024-03-23T02:09:25.039Z,989.27
2024-03-23T02:10:24.971Z,989.32
2024-03-23T02:11:24.951Z,989.29
2024-03-23T02:12:25.074Z,989.24
2024-03-23T02:13:24.989Z,989.24
2024-03-23T02:14:24.934Z,989.25
2024-03-23T02:15:24.969Z,989.28
2024-03-23T02:16:24.978Z,989.28
2024-03-23T02:17:24.944Z,989.37
2024-03-23T02:18:24.949Z,989.33
2024-03-23T02:19:24.906Z,989.32
2024-03-23T02:20:24.902Z,989.34
2024-03-23T02:21:24.914Z,989.34
2024-03-23T02:22:24.880Z,989.30
2024-03-23T02:23:24.876Z,989.29
2024-03-23T02:24:24.914Z,989.26
2024-03-23T02:25:24.869Z,989.23
2024-03-23T02:26:24.876Z,989.21
2024-03-23T02:27:24.877Z,989.16
2024-03-23T02:28:24.842Z,989.16
2024-03-23T02:29:24.821Z,989.13
2024-03-23T02:30:24.848Z,989.19
2024-03-23T02:31:24.819Z,989.16
2024-03-23T02:32:24.933Z,989.07
2024-03-23T02:33:24.833Z,989.17
2024-03-23T02:34:24.838Z,989.11
2024-03-23T02:35:24.789Z,989.16
2024-03-23T02:36:24.850Z,989.08
2024-03-23T02:37:24.800Z,989.15
2024-03-23T02:38:24.813Z,989.13
2024-03-23T02:39:24.820Z,989.14
2024-03-23T02:40:24.814Z,989.07
2024-03-23T02:41:24.782Z,989.09
2024-03-23T02:42:24.856Z,989.08
2024-03-23T02:43:24.764Z,989.04
2024-03-23T02:44:24.750Z,989.11
2024-03-23T02:45:24.757Z,989.11
2024-03-23T02:46:24.759Z,989.14
2024-03-23T02:47:24.744Z,989.08
2024-03-23T02:48:24.778Z,989.08
2024-03-23T02:49:24.733Z,989.04
2024-03-23T02:50:24.792Z,989.06
2024-03-23T02:51:24.728Z,989.01
2024-03-23T02:52:24.741Z,989.03
2024-03-23T02:53:24.694Z,989.02
2024-03-23T02:54:24.747Z,988.97
2024-03-23T02:55:24.694Z,988.99
2024-03-23T02:56:24.719Z,989.00
2024-03-23T02:57:24.693Z,989.02
2024-03-23T02:58:24.713Z,988.97
2024-03-23T02:59:24.719Z,988.93
2024-03-23T03:00:24.686Z,988.90
2024-03-23T03:01:24.729Z,988.85
2024-03-23T03:02:24.731Z,988.88
2024-03-23T03:03:24.770Z,988.90
2024-03-23T03:04:24.629Z,988.90
2024-03-23T03:05:24.638Z,988.93
2024-03-23T03:06:24.670Z,988.96
2024-03-23T03:07:24.647Z,988.93
2024-03-23T03:08:24.614Z,988.93
2024-03-23T03:09:24.735Z,988.85
2024-03-23T03:10:24.648Z,988.92
2024-03-23T03:11:24.594Z,988.85
2024-03-23T03:12:24.650Z,988.85
2024-03-23T03:13:24.597Z,988.81
2024-03-23T03:14:24.588Z,988.85
2024-03-23T03:15:24.599Z,988.83
2024-03-23T03:16:24.630Z,988.83
2024-03-23T03:17:24.610Z,988.86
2024-03-23T03:18:24.572Z,988.85
2024-03-23T03:19:24.567Z,988.92
2024-03-23T03:20:24.543Z,988.83
2024-03-23T03:21:24.589Z,988.78
2024-03-23T03:22:24.540Z,988.76
2024-03-23T03:23:24.531Z,988.77
2024-03-23T03:24:24.576Z,988.68
2024-03-23T03:25:24.575Z,988.65
2024-03-23T03:26:24.550Z,988.65
2024-03-23T03:27:24.914Z,988.64
2024-03-23T03:28:24.526Z,988.58
2024-03-23T03:29:24.499Z,988.59
2024-03-23T03:30:24.487Z,988.65
2024-03-23T03:31:24.513Z,988.62
2024-03-23T03:32:24.530Z,988.61
2024-03-23T03:33:24.495Z,988.66
2024-03-23T03:34:24.482Z,988.61
2024-03-23T03:35:24.465Z,988.61
2024-03-23T03:36:24.467Z,988.70
2024-03-23T03:37:24.439Z,988.66
2024-03-23T03:38:24.475Z,988.68
2024-03-23T03:39:24.459Z,988.64
2024-03-23T03:40:24.424Z,988.61
2024-03-23T03:41:24.433Z,988.58
2024-03-23T03:42:24.415Z,988.52
2024-03-23T03:43:24.395Z,988.45
2024-03-23T03:44:24.484Z,988.48
2024-03-23T03:45:24.398Z,988.49
2024-03-23T03:46:24.423Z,988.43
2024-03-23T03:47:24.500Z,988.41
2024-03-23T03:48:24.439Z,988.35
2024-03-23T03:49:24.375Z,988.43
2024-03-23T03:50:24.416Z,988.46
2024-03-23T03:51:24.387Z,988.42
2024-03-23T03:52:24.464Z,988.43
2024-03-23T03:53:24.375Z,988.37
2024-03-23T03:54:24.347Z,988.39
2024-03-23T03:55:25.473Z,988.38
2024-03-23T03:56:24.334Z,988.41
2024-03-23T03:57:24.345Z,988.33
2024-03-23T03:58:24.341Z,988.31
2024-03-23T03:59:24.339Z,988.33
2024-03-23T04:00:24.390Z,988.28
2024-03-23T04:01:24.330Z,988.22
2024-03-23T04:02:24.400Z,988.24
2024-03-23T04:03:24.309Z,988.35
2024-03-23T04:04:24.405Z,988.30
2024-03-23T04:05:24.320Z,988.30
2024-03-23T04:06:25.263Z,988.36
2024-03-23T04:07:24.282Z,988.32
2024-03-23T04:08:24.297Z,988.36
2024-03-23T04:09:24.283Z,988.31
2024-03-23T04:10:24.270Z,988.34
2024-03-23T04:11:24.298Z,988.32
2024-03-23T04:12:24.327Z,988.37
2024-03-23T04:13:24.252Z,988.32
2024-03-23T04:14:24.277Z,988.32
2024-03-23T04:15:24.242Z,988.31
2024-03-23T04:16:24.265Z,988.30
2024-03-23T04:17:24.238Z,988.29
2024-03-23T04:18:24.248Z,988.31
2024-03-23T04:19:24.219Z,988.35
2024-03-23T04:20:24.281Z,988.32
2024-03-23T04:21:24.245Z,988.35
2024-03-23T04:22:24.181Z,988.33
2024-03-23T04:23:24.169Z,988.29
2024-03-23T04:24:24.747Z,988.30
2024-03-23T04:25:24.190Z,988.36
2024-03-23T04:26:24.178Z,988.34
2024-03-23T04:27:24.291Z,988.35
2024-03-23T04:28:24.162Z,988.34
2024-03-23T04:29:24.165Z,988.33
2024-03-23T04:30:24.180Z,988.29
2024-03-23T04:31:24.120Z,988.36
2024-03-23T04:32:24.211Z,988.32
2024-03-23T04:33:24.112Z,988.32
2024-03-23T04:34:24.136Z,988.35
2024-03-23T04:35:24.107Z,988.36
2024-03-23T04:36:24.136Z,988.40
2024-03-23T04:37:24.108Z,988.49
2024-03-23T04:38:24.070Z,988.44
2024-03-23T04:39:24.094Z,988.50
2024-03-23T04:40:24.110Z,988.50
2024-03-23T04:41:24.095Z,988.51
2024-03-23T04:42:24.086Z,988.59
2024-03-23T04:43:24.096Z,988.57
2024-03-23T04:44:24.037Z,988.62
2024-03-23T04:45:24.098Z,988.61
2024-03-23T04:46:24.091Z,988.63
2024-03-23T04:47:24.066Z,988.53
2024-03-23T04:48:24.072Z,988.50
2024-03-23T04:49:24.026Z,988.56
2024-03-23T04:50:24.018Z,988.58
2024-03-23T04:51:24.001Z,988.56
2024-03-23T04:52:24.018Z,988.53
2024-03-23T04:53:24.009Z,988.54
2024-03-23T04:54:24.016Z,988.53
2024-03-23T04:55:24.067Z,988.56
2024-03-23T04:56:23.980Z,988.56
2024-03-23T04:57:23.961Z,988.60
2024-03-23T04:58:24.711Z,988.58
2024-03-23T04:59:23.954Z,988.57
2024-03-23T05:00:23.950Z,988.51
2024-03-23T05:01:23.947Z,988.49
2024-03-23T05:02:23.924Z,988.51
2024-03-23T05:03:23.957Z,988.47
2024-03-23T05:04:23.936Z,988.49
2024-03-23T05:05:23.905Z,988.56
2024-03-23T05:06:23.887Z,988.66
2024-03-23T05:07:23.892Z,988.68
2024-03-23T05:08:23.928Z,988.68
2024-03-23T05:09:23.902Z,988.66
2024-03-23T05:10:23.875Z,988.67
2024-03-23T05:11:23.919Z,988.67
2024-03-23T05:12:23.882Z,988.62
2024-03-23T05:13:23.888Z,988.67
2024-03-23T05:14:23.841Z,988.71
2024-03-23T05:15:23.857Z,988.71
2024-03-23T05:16:23.858Z,988.74
2024-03-23T05:17:23.842Z,988.76
2024-03-23T05:18:23.888Z,988.67
2024-03-23T05:19:23.840Z,988.70
2024-03-23T05:20:23.818Z,988.76
2024-03-23T05:21:24.834Z,988.75
2024-03-23T05:22:23.835Z,988.76
2024-03-23T05:23:23.816Z,988.76
2024-03-23T05:24:23.791Z,988.77
2024-03-23T05:25:23.794Z,988.76
2024-03-23T05:26:23.864Z,988.84
2024-03-23T05:27:23.823Z,988.81
2024-03-23T05:28:23.819Z,988.83
2024-03-23T05:29:23.762Z,988.75
2024-03-23T05:30:23.756Z,988.80
2024-03-23T05:31:23.747Z,988.87
2024-03-23T05:32:23.734Z,988.82
2024-03-23T05:33:23.722Z,988.84
2024-03-23T05:34:23.758Z,988.87
2024-03-23T05:35:23.714Z,988.95
2024-03-23T05:36:23.773Z,988.95
2024-03-23T05:37:23.719Z,988.95
2024-03-23T05:38:23.740Z,988.89
2024-03-23T05:39:23.740Z,988.91
2024-03-23T05:40:23.705Z,988.91
2024-03-23T05:41:23.720Z,988.87
2024-03-23T05:42:23.685Z,988.91
2024-03-23T05:43:23.690Z,988.89
2024-03-23T05:44:23.678Z,988.87
2024-03-23T05:45:23.727Z,988.93
2024-03-23T05:46:23.697Z,988.88
2024-03-23T05:47:23.684Z,988.90
2024-03-23T05:48:23.657Z,988.95
2024-03-23T05:49:23.638Z,988.94
2024-03-23T05:50:23.649Z,989.02
2024-03-23T05:51:23.625Z,989.05
2024-03-23T05:52:23.680Z,989.01
2024-03-23T05:53:23.634Z,989.08
2024-03-23T05:54:23.608Z,989.15
2024-03-23T05:55:23.602Z,989.15
2024-03-23T05:56:23.631Z,989.21
2024-03-23T05:57:23.581Z,989.17
2024-03-23T05:58:23.603Z,989.21
2024-03-23T05:59:23.623Z,989.19
2024-03-23T06:00:23.721Z,989.21
2024-03-23T06:01:23.626Z,989.22
2024-03-23T06:02:23.564Z,989.21
2024-03-23T06:03:23.576Z,989.35
2024-03-23T06:04:23.545Z,989.32
2024-03-23T06:05:23.556Z,989.32
2024-03-23T06:06:23.582Z,989.33
2024-03-23T06:07:23.576Z,989.45
2024-03-23T06:08:23.681Z,989.42
2024-03-23T06:09:23.538Z,989.43
2024-03-23T06:10:23.570Z,989.43
2024-03-23T06:11:23.514Z,989.43
2024-03-23T06:12:24.212Z,989.48
2024-03-23T06:13:24.130Z,989.50
2024-03-23T06:14:23.495Z,989.54
2024-03-23T06:15:23.493Z,989.58
2024-03-23T06:16:23.535Z,989.63
2024-03-23T06:17:23.491Z,989.63
2024-03-23T06:18:23.481Z,989.57
2024-03-23T06:19:23.629Z,989.62
2024-03-23T06:20:23.481Z,989.61
2024-03-23T06:21:23.464Z,989.54
2024-03-23T06:22:23.581Z,989.53
2024-03-23T06:23:23.451Z,989.55
2024-03-23T06:24:23.430Z,989.56
2024-03-23T06:25:23.416Z,989.49
2024-03-23T06:26:23.561Z,989.56
2024-03-23T06:27:23.444Z,989.55
2024-03-23T06:28:23.471Z,989.51
2024-03-23T06:29:23.377Z,989.51
2024-03-23T06:30:23.406Z,989.47
2024-03-23T06:31:23.421Z,989.46
2024-03-23T06:32:23.454Z,989.51
2024-03-23T06:33:23.434Z,989.53
2024-03-23T06:34:23.428Z,989.49
2024-03-23T06:35:23.353Z,989.48
2024-03-23T06:36:23.378Z,989.52
2024-03-23T06:37:23.364Z,989.51
2024-03-23T06:38:23.366Z,989.54
2024-03-23T06:39:23.352Z,989.52
2024-03-23T06:40:23.467Z,989.52
2024-03-23T06:41:25.102Z,989.46
2024-03-23T06:42:23.312Z,989.54
2024-03-23T06:43:23.324Z,989.53
2024-03-23T06:44:23.309Z,989.51
2024-03-23T06:45:23.288Z,989.65
2024-03-23T06:46:23.324Z,989.56
2024-03-23T06:47:23.349Z,989.62
2024-03-23T06:48:23.338Z,989.70
2024-03-23T06:49:23.269Z,989.82
2024-03-23T06:50:23.342Z,989.83
2024-03-23T06:51:23.343Z,989.82
2024-03-23T06:52:23.285Z,989.83
2024-03-23T06:53:23.286Z,989.80
2024-03-23T06:54:23.283Z,989.72
2024-03-23T06:55:23.282Z,989.71
2024-03-23T06:56:23.227Z,989.69
2024-03-23T06:57:23.250Z,989.65
2024-03-23T06:58:23.221Z,989.69
2024-03-23T06:59:23.223Z,989.61
2024-03-23T07:00:23.323Z,989.63
2024-03-23T07:01:24.167Z,989.70
2024-03-23T07:02:23.222Z,989.62
2024-03-23T07:03:23.245Z,989.72
2024-03-23T07:04:23.191Z,989.84
2024-03-23T07:05:23.183Z,989.84
2024-03-23T07:06:25.086Z,989.94
2024-03-23T07:07:24.262Z,989.98
2024-03-23T07:08:23.179Z,989.96
2024-03-23T07:09:23.148Z,990.01
2024-03-23T07:10:23.152Z,989.92
2024-03-23T07:11:23.165Z,989.94
2024-03-23T07:12:23.130Z,989.87
2024-03-23T07:13:23.148Z,989.87
2024-03-23T07:14:23.130Z,989.89
2024-03-23T07:15:23.101Z,989.86
2024-03-23T07:16:23.136Z,989.87
2024-03-23T07:17:23.155Z,989.86
2024-03-23T07:18:23.102Z,989.88
2024-03-23T07:19:23.095Z,989.89
2024-03-23T07:20:23.099Z,989.88
2024-03-23T07:21:23.079Z,989.98
2024-03-23T07:22:23.075Z,990.00
2024-03-23T07:23:23.060Z,990.05
2024-03-23T07:24:23.081Z,990.15
2024-03-23T07:25:23.090Z,990.16
2024-03-23T07:26:23.131Z,990.17
2024-03-23T07:27:23.154Z,990.15
2024-03-23T07:28:23.076Z,990.12
2024-03-23T07:29:23.052Z,990.20
2024-03-23T07:30:23.018Z,990.19
2024-03-23T07:31:23.079Z,990.14
2024-03-23T07:32:23.135Z,990.15
2024-03-23T07:33:23.732Z,990.20
2024-03-23T07:34:23.072Z,990.17
2024-03-23T07:35:23.019Z,990.11
2024-03-23T07:36:23.000Z,990.20
2024-03-23T07:37:24.524Z,990.14
2024-03-23T07:38:23.199Z,990.16
2024-03-23T07:39:22.987Z,990.17
2024-03-23T07:40:23.818Z,990.09
2024-03-23T07:41:22.969Z,990.19
2024-03-23T07:42:22.975Z,990.20
2024-03-23T07:43:22.973Z,990.25
2024-03-23T07:44:22.958Z,990.22
2024-03-23T07:45:22.967Z,990.24
2024-03-23T07:46:23.170Z,990.28
2024-03-23T07:47:24.228Z,990.29
2024-03-23T07:48:23.124Z,990.31
2024-03-23T07:49:22.935Z,990.28
2024-03-23T07:50:23.038Z,990.31
2024-03-23T07:51:22.920Z,990.34
2024-03-23T07:52:22.887Z,990.31
2024-03-23T07:53:22.907Z,990.28
2024-03-23T07:54:22.929Z,990.30
2024-03-23T07:55:22.889Z,990.24
2024-03-23T07:56:22.863Z,990.23
2024-03-23T07:57:22.906Z,990.25
2024-03-23T07:58:22.851Z,990.19
2024-03-23T07:59:22.853Z,990.26
2024-03-23T08:00:22.836Z,990.33
2024-03-23T08:01:22.819Z,990.38
2024-03-23T08:02:22.888Z,990.35
2024-03-23T08:03:22.853Z,990.38
2024-03-23T08:04:22.821Z,990.44
2024-03-23T08:05:23.692Z,990.44
2024-03-23T08:06:22.839Z,990.48
2024-03-23T08:07:22.805Z,990.53
2024-03-23T08:08:22.785Z,990.50
2024-03-23T08:09:22.789Z,990.41
2024-03-23T08:10:22.761Z,990.57
2024-03-23T08:11:22.838Z,990.53
2024-03-23T08:12:23.589Z,990.61
2024-03-23T08:13:22.750Z,990.58
2024-03-23T08:14:22.792Z,990.59
2024-03-23T08:15:23.782Z,990.56
2024-03-23T08:16:22.726Z,990.52
2024-03-23T08:17:22.721Z,990.61
2024-03-23T08:18:22.769Z,990.62
2024-03-23T08:19:22.776Z,990.62
2024-03-23T08:20:22.710Z,990.56
2024-03-23T08:21:22.715Z,990.55
2024-03-23T08:22:22.733Z,990.48
2024-03-23T08:23:22.725Z,990.58
2024-03-23T08:24:22.715Z,990.46
2024-03-23T08:25:22.685Z,990.47
2024-03-23T08:26:22.696Z,990.52
2024-03-23T08:27:22.649Z,990.47
2024-03-23T08:28:22.690Z,990.52
2024-03-23T08:29:22.694Z,990.58
2024-03-23T08:30:22.675Z,990.58
2024-03-23T08:31:22.684Z,990.68
2024-03-23T08:32:22.622Z,990.68
2024-03-23T08:33:22.615Z,990.64
2024-03-23T08:34:23.653Z,990.70
2024-03-23T08:35:23.922Z,990.71
2024-03-23T08:36:22.603Z,990.69
2024-03-23T08:37:22.602Z,990.71
2024-03-23T08:38:22.627Z,990.72
2024-03-23T08:39:28.318Z,990.69
2024-03-23T08:40:24.645Z,990.77
2024-03-23T08:41:22.617Z,990.65
2024-03-23T08:42:22.647Z,990.69
2024-03-23T08:43:23.221Z,990.71
2024-03-23T08:44:22.547Z,990.78
2024-03-23T08:45:22.581Z,990.74
2024-03-23T08:46:22.551Z,990.68
2024-03-23T08:47:22.568Z,990.78
2024-03-23T08:48:22.566Z,990.82
2024-03-23T08:49:22.895Z,990.82
2024-03-23T08:50:22.550Z,990.77
2024-03-23T08:51:22.546Z,990.74
2024-03-23T08:52:22.514Z,990.73
2024-03-23T08:53:22.512Z,990.76
2024-03-23T08:54:22.538Z,990.75
2024-03-23T08:55:22.586Z,990.78
2024-03-23T08:56:22.595Z,990.84
2024-03-23T08:57:22.505Z,990.84
2024-03-23T08:58:23.216Z,990.81
2024-03-23T08:59:22.470Z,990.80
2024-03-23T09:00:22.675Z,990.84
2024-03-23T09:01:22.446Z,990.91
2024-03-23T09:02:22.513Z,990.86
2024-03-23T09:03:22.442Z,990.91
2024-03-23T09:04:22.447Z,990.97
2024-03-23T09:05:22.451Z,990.91
2024-03-23T09:06:22.454Z,990.94
2024-03-23T09:07:22.405Z,990.97
2024-03-23T09:08:22.454Z,990.92
2024-03-23T09:09:22.429Z,990.94
2024-03-23T09:10:22.454Z,990.91
2024-03-23T09:11:22.544Z,990.98
2024-03-23T09:12:22.483Z,990.97
2024-03-23T09:13:22.396Z,990.88
2024-03-23T09:14:22.465Z,990.90
2024-03-23T09:15:22.392Z,990.91
2024-03-23T09:16:22.397Z,990.96
2024-03-23T09:17:22.365Z,990.99
2024-03-23T09:18:22.360Z,990.98
2024-03-23T09:19:22.858Z,991.02
2024-03-23T09:20:22.349Z,990.98
2024-03-23T09:21:22.345Z,991.00
2024-03-23T09:22:22.340Z,991.02
2024-03-23T09:23:22.411Z,991.02
2024-03-23T09:24:22.328Z,991.01
2024-03-23T09:25:22.329Z,991.02
2024-03-23T09:26:22.349Z,990.96
2024-03-23T09:27:22.335Z,990.92
2024-03-23T09:28:22.308Z,990.93
2024-03-23T09:29:22.308Z,990.93
2024-03-23T09:30:22.305Z,991.03
2024-03-23T09:31:22.281Z,991.03
2024-03-23T09:32:22.287Z,991.01
2024-03-23T09:33:22.275Z,990.97
2024-03-23T09:34:22.288Z,991.11
2024-03-23T09:35:22.277Z,991.09
2024-03-23T09:36:22.234Z,991.23
2024-03-23T09:37:22.275Z,991.13
2024-03-23T09:38:22.285Z,991.09
2024-03-23T09:39:23.842Z,991.12
2024-03-23T09:40:22.228Z,991.03
2024-03-23T09:41:22.207Z,991.05
2024-03-23T09:42:22.214Z,991.14
2024-03-23T09:43:22.231Z,991.19
2024-03-23T09:44:22.195Z,991.19
2024-03-23T09:45:22.192Z,991.24
2024-03-23T09:46:22.212Z,991.23
2024-03-23T09:47:22.191Z,991.20
2024-03-23T09:48:22.176Z,991.11
2024-03-23T09:49:22.211Z,991.19
2024-03-23T09:50:22.158Z,991.05
2024-03-23T09:51:22.193Z,991.06
2024-03-23T09:52:22.155Z,991.02
2024-03-23T09:53:22.130Z,991.01
2024-03-23T09:54:22.134Z,990.99
2024-03-23T09:55:22.157Z,991.04
2024-03-23T09:56:22.132Z,990.99
2024-03-23T09:57:22.148Z,991.02
2024-03-23T09:58:22.129Z,991.12
2024-03-23T09:59:22.108Z,991.31
2024-03-23T10:00:22.158Z,991.32
2024-03-23T10:01:22.143Z,991.20
2024-03-23T10:02:22.077Z,991.28
2024-03-23T10:03:22.078Z,991.27
2024-03-23T10:04:22.092Z,991.33
2024-03-23T10:05:24.308Z,991.30
2024-03-23T10:06:22.088Z,991.30
2024-03-23T10:07:22.045Z,991.28
2024-03-23T10:08:22.064Z,991.18
2024-03-23T10:09:22.031Z,991.36
2024-03-23T10:10:22.129Z,991.38
2024-03-23T10:11:22.068Z,991.05
2024-03-23T10:12:22.029Z,991.12
2024-03-23T10:13:22.042Z,991.09
2024-03-23T10:14:22.001Z,991.18
2024-03-23T10:15:22.002Z,991.25
2024-03-23T10:16:22.000Z,991.20
2024-03-23T10:17:22.027Z,990.97
2024-03-23T10:18:22.057Z,991.03
2024-03-23T10:19:21.979Z,991.21
2024-03-23T10:20:21.967Z,990.90
2024-03-23T10:21:22.024Z,991.27
2024-03-23T10:22:21.975Z,990.84
2024-03-23T10:23:21.969Z,991.00
2024-03-23T10:24:22.769Z,991.12
2024-03-23T10:25:21.957Z,990.78
2024-03-23T10:26:21.941Z,990.77
2024-03-23T10:27:21.917Z,990.99
2024-03-23T10:28:22.008Z,991.04
2024-03-23T10:29:21.942Z,990.70
2024-03-23T10:30:21.939Z,990.67
2024-03-23T10:31:21.905Z,990.66
2024-03-23T10:32:21.926Z,990.58
2024-03-23T10:33:21.885Z,990.98
2024-03-23T10:34:21.901Z,990.53
2024-03-23T10:35:21.901Z,990.52
2024-03-23T10:36:21.899Z,990.55
2024-03-23T10:37:21.875Z,990.38
2024-03-23T10:38:21.896Z,990.40
2024-03-23T10:39:21.897Z,990.51
2024-03-23T10:40:21.895Z,990.42
2024-03-23T10:41:21.844Z,990.37
2024-03-23T10:42:21.894Z,990.32
2024-03-23T10:43:21.844Z,990.62
2024-03-23T10:44:21.845Z,990.68
2024-03-23T10:45:21.905Z,990.75
2024-03-23T10:46:21.818Z,990.48
2024-03-23T10:47:21.876Z,990.67
2024-03-23T10:48:21.806Z,990.33
2024-03-23T10:49:21.821Z,990.70
2024-03-23T10:50:21.832Z,990.64
2024-03-23T10:51:22.807Z,990.44
2024-03-23T10:52:21.842Z,990.41
2024-03-23T10:53:21.799Z,990.25
2024-03-23T10:54:21.799Z,990.33
2024-03-23T10:55:21.777Z,990.56
2024-03-23T10:56:21.810Z,990.45
2024-03-23T10:57:21.755Z,990.17
2024-03-23T10:58:21.753Z,990.24
2024-03-23T10:59:21.748Z,990.16
2024-03-23T11:00:21.762Z,990.21
2024-03-23T11:01:21.742Z,990.11
2024-03-23T11:02:21.775Z,990.18
2024-03-23T11:03:21.761Z,990.23
2024-03-23T11:04:21.770Z,990.17
2024-03-23T11:05:21.754Z,990.51
2024-03-23T11:06:21.770Z,990.19
2024-03-23T11:07:21.721Z,990.42
2024-03-23T11:08:21.700Z,990.20
2024-03-23T11:09:21.742Z,990.12
2024-03-23T11:10:21.771Z,990.07
2024-03-23T11:11:21.666Z,990.41
2024-03-23T11:12:21.712Z,990.06
2024-03-23T11:13:21.700Z,990.20
2024-03-23T11:14:21.690Z,990.39
2024-03-23T11:15:21.654Z,990.40
2024-03-23T11:16:21.714Z,990.29
2024-03-23T11:17:21.679Z,990.30
2024-03-23T11:18:21.685Z,990.35
2024-03-23T11:19:21.635Z,990.43
2024-03-23T11:20:21.658Z,990.52
2024-03-23T11:21:21.628Z,990.43
2024-03-23T11:22:21.643Z,990.46
2024-03-23T11:23:21.602Z,990.39
2024-03-23T11:24:21.614Z,990.35
2024-03-23T11:25:21.585Z,990.34
2024-03-23T11:26:21.596Z,990.36
2024-03-23T11:27:21.576Z,990.23
2024-03-23T11:28:21.614Z,990.32
2024-03-23T11:29:21.559Z,990.47
2024-03-23T11:30:21.575Z,990.50
2024-03-23T11:31:21.577Z,990.52
2024-03-23T11:32:21.607Z,990.57
2024-03-23T11:33:21.545Z,990.62
2024-03-23T11:34:21.553Z,990.59
2024-03-23T11:35:21.518Z,990.59
2024-03-23T11:36:21.554Z,990.58
2024-03-23T11:37:21.578Z,990.59
2024-03-23T11:38:21.526Z,990.67
2024-03-23T11:39:21.515Z,990.67
2024-03-23T11:40:21.517Z,990.65
2024-03-23T11:41:21.490Z,990.60
2024-03-23T11:42:21.505Z,990.62
2024-03-23T11:43:21.499Z,990.66
2024-03-23T11:44:21.491Z,990.65
2024-03-23T11:45:22.471Z,990.59
2024-03-23T11:46:21.457Z,990.50
2024-03-23T11:47:21.504Z,990.54
2024-03-23T11:48:21.502Z,990.54
2024-03-23T11:49:21.489Z,990.09
2024-03-23T11:50:21.451Z,990.27
2024-03-23T11:51:21.437Z,990.37
2024-03-23T11:52:21.518Z,990.42
2024-03-23T11:53:21.408Z,990.34
2024-03-23T11:54:21.407Z,989.98
2024-03-23T11:55:21.418Z,990.25
2024-03-23T11:56:21.386Z,989.91
2024-03-23T11:57:21.456Z,989.97
2024-03-23T11:58:21.393Z,990.09
2024-03-23T11:59:22.417Z,990.01
2024-03-23T12:00:21.410Z,990.13
2024-03-23T12:01:21.397Z,990.22
2024-03-23T12:02:21.405Z,990.31
2024-03-23T12:03:21.366Z,990.22
2024-03-23T12:04:21.362Z,990.19
2024-03-23T12:05:21.379Z,990.40
2024-03-23T12:06:21.351Z,990.30
2024-03-23T12:07:21.394Z,990.33
2024-03-23T12:08:21.338Z,990.32
2024-03-23T12:09:21.335Z,990.26
2024-03-23T12:10:21.341Z,990.30
2024-03-23T12:11:21.322Z,990.38
2024-03-23T12:12:21.326Z,990.36
2024-03-23T12:13:21.346Z,990.27
2024-03-23T12:14:21.297Z,990.25
2024-03-23T12:15:22.291Z,990.32
2024-03-23T12:16:21.270Z,990.35
2024-03-23T12:17:21.268Z,990.37
2024-03-23T12:18:21.407Z,990.35
2024-03-23T12:19:21.265Z,990.34
2024-03-23T12:20:21.257Z,990.39
2024-03-23T12:21:21.268Z,990.39
2024-03-23T12:22:21.251Z,990.44
2024-03-23T12:23:21.249Z,990.44
2024-03-23T12:24:21.226Z,990.42
2024-03-23T12:25:21.229Z,990.74
2024-03-23T12:26:21.226Z,990.64
2024-03-23T12:27:21.190Z,990.61
2024-03-23T12:28:21.242Z,990.57